sensor_id;sensor_type;location;lat;lon;timestamp;pressure;altitude;pressure_sealevel;temperature;humidity
64668;BME280;51077;42.716;23.344;2023-04-15T00:00:06;94598.41;;;12.11;43.22
64668;BME280;51077;42.716;23.344;2023-04-15T00:02:32;94602.41;;;12.10;43.29
64668;BME280;51077;42.716;23.344;2023-04-15T00:04:57;94609.19;;;12.08;43.74
64668;BME280;51077;42.716;23.344;2023-04-15T00:07:22;94619.28;;;12.06;43.67
64668;BME280;51077;42.716;23.344;2023-04-15T00:09:48;94629.53;;;12.05;43.84
64668;BME280;51077;42.716;23.344;2023-04-15T00:12:13;94628.28;;;12.06;44.05
64668;BME280;51077;42.716;23.344;2023-04-15T00:14:38;94620.03;;;12.06;43.97
64668;BME280;51077;42.716;23.344;2023-04-15T00:17:04;94612.28;;;12.05;43.89
64668;BME280;51077;42.716;23.344;2023-04-15T00:19:30;94618.34;;;12.03;44.05
64668;BME280;51077;42.716;23.344;2023-04-15T00:21:56;94614.31;;;12.04;44.12
64668;BME280;51077;42.716;23.344;2023-04-15T00:24:22;94616.88;;;12.02;44.18
64668;BME280;51077;42.716;23.344;2023-04-15T00:26:47;94614.13;;;12.02;43.96
64668;BME280;51077;42.716;23.344;2023-04-15T00:29:13;94608.41;;;12.00;44.27
64668;BME280;51077;42.716;23.344;2023-04-15T00:31:39;94599.97;;;11.98;44.42
64668;BME280;51077;42.716;23.344;2023-04-15T00:34:05;94599.75;;;11.96;44.43
64668;BME280;51077;42.716;23.344;2023-04-15T00:36:30;94602.50;;;11.96;44.16
64668;BME280;51077;42.716;23.344;2023-04-15T00:38:57;94615.00;;;11.97;44.34
64668;BME280;51077;42.716;23.344;2023-04-15T00:41:23;94622.28;;;11.95;44.50
64668;BME280;51077;42.716;23.344;2023-04-15T00:43:49;94631.28;;;11.95;44.54
64668;BME280;51077;42.716;23.344;2023-04-15T00:46:16;94623.03;;;11.95;44.50
64668;BME280;51077;42.716;23.344;2023-04-15T00:48:43;94616.06;;;11.94;44.62
64668;BME280;51077;42.716;23.344;2023-04-15T00:51:09;94615.31;;;11.94;44.84
64668;BME280;51077;42.716;23.344;2023-04-15T00:53:35;94610.56;;;11.94;44.75
64668;BME280;51077;42.716;23.344;2023-04-15T00:56:00;94620.81;;;11.94;44.90
64668;BME280;51077;42.716;23.344;2023-04-15T00:58:25;94609.81;;;11.94;44.90
64668;BME280;51077;42.716;23.344;2023-04-15T01:00:53;94608.31;;;11.93;45.13
64668;BME280;51077;42.716;23.344;2023-04-15T01:03:19;94612.56;;;11.94;45.16
64668;BME280;51077;42.716;23.344;2023-04-15T01:05:45;94612.34;;;11.92;45.11
64668;BME280;51077;42.716;23.344;2023-04-15T01:08:10;94628.13;;;11.91;45.12
64668;BME280;51077;42.716;23.344;2023-04-15T01:10:36;94640.41;;;11.90;45.17
64668;BME280;51077;42.716;23.344;2023-04-15T01:13:02;94640.94;;;11.89;45.25
64668;BME280;51077;42.716;23.344;2023-04-15T01:15:28;94627.94;;;11.89;45.51
64668;BME280;51077;42.716;23.344;2023-04-15T01:17:53;94620.94;;;11.88;45.56
64668;BME280;51077;42.716;23.344;2023-04-15T01:20:18;94624.44;;;11.89;45.48
64668;BME280;51077;42.716;23.344;2023-04-15T01:22:44;94619.47;;;11.87;45.28
64668;BME280;51077;42.716;23.344;2023-04-15T01:25:12;94621.28;;;11.85;45.51
64668;BME280;51077;42.716;23.344;2023-04-15T01:27:42;94619.56;;;11.81;45.68
64668;BME280;51077;42.716;23.344;2023-04-15T01:30:09;94618.63;;;11.79;45.93
64668;BME280;51077;42.716;23.344;2023-04-15T01:32:34;94616.97;;;11.76;45.83
64668;BME280;51077;42.716;23.344;2023-04-15T01:35:00;94607.75;;;11.73;46.04
64668;BME280;51077;42.716;23.344;2023-04-15T01:37:26;94615.06;;;11.71;46.02
64668;BME280;51077;42.716;23.344;2023-04-15T01:39:51;94607.91;;;11.68;46.22
64668;BME280;51077;42.716;23.344;2023-04-15T01:42:17;94609.50;;;11.63;46.29
64668;BME280;51077;42.716;23.344;2023-04-15T01:44:42;94617.53;;;11.61;46.23
64668;BME280;51077;42.716;23.344;2023-04-15T01:47:07;94615.13;;;11.57;46.27
64668;BME280;51077;42.716;23.344;2023-04-15T01:49:33;94623.16;;;11.55;46.53
64668;BME280;51077;42.716;23.344;2023-04-15T01:51:59;94629.72;;;11.52;46.58
64668;BME280;51077;42.716;23.344;2023-04-15T01:54:25;94634.47;;;11.52;46.60
64668;BME280;51077;42.716;23.344;2023-04-15T01:56:51;94639.06;;;11.49;46.48
64668;BME280;51077;42.716;23.344;2023-04-15T01:59:17;94639.88;;;11.44;46.91
64668;BME280;51077;42.716;23.344;2023-04-15T02:01:43;94635.25;;;11.39;47.08
64668;BME280;51077;42.716;23.344;2023-04-15T02:04:09;94636.31;;;11.36;46.99
64668;BME280;51077;42.716;23.344;2023-04-15T02:06:41;94640.66;;;11.31;47.24
64668;BME280;51077;42.716;23.344;2023-04-15T02:09:07;94645.97;;;11.29;47.13
64668;BME280;51077;42.716;23.344;2023-04-15T02:11:33;94641.31;;;11.24;47.48
64668;BME280;51077;42.716;23.344;2023-04-15T02:13:59;94641.09;;;11.22;47.26
64668;BME280;51077;42.716;23.344;2023-04-15T02:16:24;94636.47;;;11.17;47.46
64668;BME280;51077;42.716;23.344;2023-04-15T02:18:50;94639.03;;;11.15;47.64
64668;BME280;51077;42.716;23.344;2023-04-15T02:21:16;94635.31;;;11.13;47.61
64668;BME280;51077;42.716;23.344;2023-04-15T02:23:43;94632.16;;;11.08;47.68
64668;BME280;51077;42.716;23.344;2023-04-15T02:26:08;94637.75;;;11.03;47.98
64668;BME280;51077;42.716;23.344;2023-04-15T02:28:34;94635.88;;;10.98;48.17
64668;BME280;51077;42.716;23.344;2023-04-15T02:31:00;94631.97;;;10.93;48.04
64668;BME280;51077;42.716;23.344;2023-04-15T02:33:26;94627.72;;;10.92;48.09
64668;BME280;51077;42.716;23.344;2023-04-15T02:35:51;94633.56;;;10.89;48.23
64668;BME280;51077;42.716;23.344;2023-04-15T02:38:17;94638.81;;;10.87;48.34
64668;BME280;51077;42.716;23.344;2023-04-15T02:40:42;94641.88;;;10.83;48.38
64668;BME280;51077;42.716;23.344;2023-04-15T02:43:08;94646.94;;;10.79;48.35
64668;BME280;51077;42.716;23.344;2023-04-15T02:45:33;94652.00;;;10.75;48.77
64668;BME280;51077;42.716;23.344;2023-04-15T02:47:59;94640.31;;;10.74;48.57
64668;BME280;51077;42.716;23.344;2023-04-15T02:50:30;94646.63;;;10.69;48.53
64668;BME280;51077;42.716;23.344;2023-04-15T02:52:55;94651.19;;;10.67;48.58
64668;BME280;51077;42.716;23.344;2023-04-15T02:55:21;94645.28;;;10.63;48.58
64668;BME280;51077;42.716;23.344;2023-04-15T02:57:46;94659.50;;;10.61;48.55
64668;BME280;51077;42.716;23.344;2023-04-15T03:00:12;94656.88;;;10.55;48.83
64668;BME280;51077;42.716;23.344;2023-04-15T03:02:38;94661.94;;;10.51;48.70
64668;BME280;51077;42.716;23.344;2023-04-15T03:05:04;94656.97;;;10.50;48.81
64668;BME280;51077;42.716;23.344;2023-04-15T03:07:30;94657.28;;;10.46;48.89
64668;BME280;51077;42.716;23.344;2023-04-15T03:09:56;94650.09;;;10.43;48.80
64668;BME280;51077;42.716;23.344;2023-04-15T03:12:21;94656.22;;;10.36;48.77
64668;BME280;51077;42.716;23.344;2023-04-15T03:14:47;94654.00;;;10.35;48.77
64668;BME280;51077;42.716;23.344;2023-04-15T03:17:12;94655.56;;;10.30;48.82
64668;BME280;51077;42.716;23.344;2023-04-15T03:19:38;94659.34;;;10.27;48.97
64668;BME280;51077;42.716;23.344;2023-04-15T03:22:03;94661.88;;;10.25;48.98
64668;BME280;51077;42.716;23.344;2023-04-15T03:24:28;94661.63;;;10.23;48.98
64668;BME280;51077;42.716;23.344;2023-04-15T03:26:55;94658.47;;;10.19;48.96
64668;BME280;51077;42.716;23.344;2023-04-15T03:29:22;94671.22;;;10.16;48.84
64668;BME280;51077;42.716;23.344;2023-04-15T03:31:47;94677.75;;;10.13;48.90
64668;BME280;51077;42.716;23.344;2023-04-15T03:34:12;94691.03;;;10.09;49.00
64668;BME280;51077;42.716;23.344;2023-04-15T03:36:38;94687.84;;;10.05;48.99
64668;BME280;51077;42.716;23.344;2023-04-15T03:39:03;94694.38;;;10.02;49.14
64668;BME280;51077;42.716;23.344;2023-04-15T03:41:29;94695.13;;;10.02;49.14
64668;BME280;51077;42.716;23.344;2023-04-15T03:43:55;94698.91;;;9.99;49.17
64668;BME280;51077;42.716;23.344;2023-04-15T03:46:20;94701.94;;;9.96;49.02
64668;BME280;51077;42.716;23.344;2023-04-15T03:48:46;94706.47;;;9.93;49.26
64668;BME280;51077;42.716;23.344;2023-04-15T03:51:12;94706.97;;;9.92;49.19
64668;BME280;51077;42.716;23.344;2023-04-15T03:53:37;94708.25;;;9.91;49.30
64668;BME280;51077;42.716;23.344;2023-04-15T03:56:03;94713.53;;;9.89;49.23
64668;BME280;51077;42.716;23.344;2023-04-15T03:58:28;94707.28;;;9.88;49.23
64668;BME280;51077;42.716;23.344;2023-04-15T04:00:53;94706.25;;;9.91;49.20
64668;BME280;51077;42.716;23.344;2023-04-15T04:03:19;94707.50;;;9.90;49.06
64668;BME280;51077;42.716;23.344;2023-04-15T04:05:44;94704.97;;;9.92;49.06
64668;BME280;51077;42.716;23.344;2023-04-15T04:08:10;94701.00;;;9.93;48.83
64668;BME280;51077;42.716;23.344;2023-04-15T04:10:38;94704.91;;;9.98;49.03
64668;BME280;51077;42.716;23.344;2023-04-15T04:13:04;94712.84;;;10.01;48.95
64668;BME280;51077;42.716;23.344;2023-04-15T04:15:30;94709.03;;;10.04;48.96
64668;BME280;51077;42.716;23.344;2023-04-15T04:17:55;94718.69;;;10.11;48.88
64668;BME280;51077;42.716;23.344;2023-04-15T04:20:21;94715.31;;;10.18;48.73
64668;BME280;51077;42.716;23.344;2023-04-15T04:22:46;94714.50;;;10.23;48.68
64668;BME280;51077;42.716;23.344;2023-04-15T04:25:12;94718.66;;;10.30;48.43
64668;BME280;51077;42.716;23.344;2023-04-15T04:27:37;94714.66;;;10.44;48.42
64668;BME280;51077;42.716;23.344;2023-04-15T04:30:04;94722.84;;;10.63;48.20
64668;BME280;51077;42.716;23.344;2023-04-15T04:32:31;94724.03;;;10.94;47.56
64668;BME280;51077;42.716;23.344;2023-04-15T04:34:56;94725.94;;;11.26;46.89
64668;BME280;51077;42.716;23.344;2023-04-15T04:37:22;94724.63;;;11.53;46.28
64668;BME280;51077;42.716;23.344;2023-04-15T04:39:47;94722.91;;;11.77;45.92
64668;BME280;51077;42.716;23.344;2023-04-15T04:42:13;94726.25;;;11.96;45.71
64668;BME280;51077;42.716;23.344;2023-04-15T04:44:38;94732.34;;;12.16;45.30
64668;BME280;51077;42.716;23.344;2023-04-15T04:47:03;94738.19;;;12.33;44.76
64668;BME280;51077;42.716;23.344;2023-04-15T04:49:30;94737.56;;;12.48;44.58
64668;BME280;51077;42.716;23.344;2023-04-15T04:51:56;94740.81;;;12.60;44.40
64668;BME280;51077;42.716;23.344;2023-04-15T04:54:21;94737.56;;;12.69;44.20
64668;BME280;51077;42.716;23.344;2023-04-15T04:56:49;94737.41;;;12.74;44.24
64668;BME280;51077;42.716;23.344;2023-04-15T04:59:15;94740.50;;;12.71;44.27
64668;BME280;51077;42.716;23.344;2023-04-15T05:01:40;94748.19;;;12.65;44.49
64668;BME280;51077;42.716;23.344;2023-04-15T05:04:06;94751.34;;;12.69;44.49
64668;BME280;51077;42.716;23.344;2023-04-15T05:06:32;94745.19;;;12.83;44.61
64668;BME280;51077;42.716;23.344;2023-04-15T05:08:57;94753.44;;;13.04;44.29
64668;BME280;51077;42.716;23.344;2023-04-15T05:11:23;94757.25;;;13.22;44.03
64668;BME280;51077;42.716;23.344;2023-04-15T05:13:48;94767.66;;;13.45;44.88
64668;BME280;51077;42.716;23.344;2023-04-15T05:16:13;94775.47;;;13.62;44.51
64668;BME280;51077;42.716;23.344;2023-04-15T05:18:39;94772.97;;;13.71;43.89
64668;BME280;51077;42.716;23.344;2023-04-15T05:21:05;94774.44;;;13.72;43.91
64668;BME280;51077;42.716;23.344;2023-04-15T05:23:31;94770.00;;;13.69;43.93
64668;BME280;51077;42.716;23.344;2023-04-15T05:25:56;94772.53;;;13.60;44.15
64668;BME280;51077;42.716;23.344;2023-04-15T05:28:22;94775.25;;;13.52;44.14
64668;BME280;51077;42.716;23.344;2023-04-15T05:30:47;94786.22;;;13.44;44.22
64668;BME280;51077;42.716;23.344;2023-04-15T05:33:13;94785.09;;;13.40;44.49
64668;BME280;51077;42.716;23.344;2023-04-15T05:35:38;94779.19;;;13.36;44.43
64668;BME280;51077;42.716;23.344;2023-04-15T05:38:03;94769.69;;;13.44;47.32
64668;BME280;51077;42.716;23.344;2023-04-15T05:40:29;94776.34;;;13.49;47.55
64668;BME280;51077;42.716;23.344;2023-04-15T05:42:55;94765.91;;;13.55;46.88
64668;BME280;51077;42.716;23.344;2023-04-15T05:45:21;94767.22;;;13.62;46.54
64668;BME280;51077;42.716;23.344;2023-04-15T05:47:46;94774.97;;;13.71;46.13
64668;BME280;51077;42.716;23.344;2023-04-15T05:50:14;94780.53;;;13.78;45.67
64668;BME280;51077;42.716;23.344;2023-04-15T05:52:39;94777.25;;;13.88;45.59
64668;BME280;51077;42.716;23.344;2023-04-15T05:55:05;94771.94;;;13.97;45.29
64668;BME280;51077;42.716;23.344;2023-04-15T05:57:31;94777.34;;;14.11;45.04
64668;BME280;51077;42.716;23.344;2023-04-15T05:59:56;94784.38;;;14.27;44.73
64668;BME280;51077;42.716;23.344;2023-04-15T06:02:22;94794.53;;;14.40;44.42
64668;BME280;51077;42.716;23.344;2023-04-15T06:04:47;94795.13;;;14.53;44.21
64668;BME280;51077;42.716;23.344;2023-04-15T06:07:15;94791.13;;;14.70;43.73
64668;BME280;51077;42.716;23.344;2023-04-15T06:09:41;94798.13;;;14.86;43.60
64668;BME280;51077;42.716;23.344;2023-04-15T06:12:06;94799.63;;;15.02;43.26
64668;BME280;51077;42.716;23.344;2023-04-15T06:14:36;94798.31;;;15.19;42.83
64668;BME280;51077;42.716;23.344;2023-04-15T06:17:02;94808.06;;;15.35;42.67
64668;BME280;51077;42.716;23.344;2023-04-15T06:19:28;94802.34;;;15.48;42.86
64668;BME280;51077;42.716;23.344;2023-04-15T06:21:53;94807.66;;;15.62;43.11
64668;BME280;51077;42.716;23.344;2023-04-15T06:24:19;94814.81;;;15.80;42.94
64668;BME280;51077;42.716;23.344;2023-04-15T06:26:44;94817.19;;;15.99;43.04
64668;BME280;51077;42.716;23.344;2023-04-15T06:29:10;94818.03;;;16.17;42.85
64668;BME280;51077;42.716;23.344;2023-04-15T06:31:38;94822.16;;;16.41;42.41
64668;BME280;51077;42.716;23.344;2023-04-15T06:34:03;94825.94;;;16.61;42.31
64668;BME280;51077;42.716;23.344;2023-04-15T06:36:29;94827.72;;;16.81;42.34
64668;BME280;51077;42.716;23.344;2023-04-15T06:38:54;94822.59;;;17.02;41.77
64668;BME280;51077;42.716;23.344;2023-04-15T06:41:21;94823.53;;;17.22;41.42
64668;BME280;51077;42.716;23.344;2023-04-15T06:43:47;94819.47;;;17.41;41.15
64668;BME280;51077;42.716;23.344;2023-04-15T06:46:12;94830.06;;;17.59;41.06
64668;BME280;51077;42.716;23.344;2023-04-15T06:48:38;94830.97;;;17.79;40.93
64668;BME280;51077;42.716;23.344;2023-04-15T06:51:04;94834.81;;;18.01;40.47
64668;BME280;51077;42.716;23.344;2023-04-15T06:53:29;94835.13;;;18.23;40.31
64668;BME280;51077;42.716;23.344;2023-04-15T06:55:55;94836.00;;;18.43;39.90
64668;BME280;51077;42.716;23.344;2023-04-15T06:58:20;94836.44;;;18.66;39.80
64668;BME280;51077;42.716;23.344;2023-04-15T07:00:46;94836.72;;;18.88;39.30
64668;BME280;51077;42.716;23.344;2023-04-15T07:03:12;94828.63;;;19.09;39.12
64668;BME280;51077;42.716;23.344;2023-04-15T07:05:38;94826.81;;;19.31;38.75
64668;BME280;51077;42.716;23.344;2023-04-15T07:08:04;94826.41;;;19.54;38.52
64668;BME280;51077;42.716;23.344;2023-04-15T07:10:29;94819.00;;;19.76;38.10
64668;BME280;51077;42.716;23.344;2023-04-15T07:12:55;94823.44;;;19.98;37.95
64668;BME280;51077;42.716;23.344;2023-04-15T07:15:21;94830.63;;;20.21;37.55
64668;BME280;51077;42.716;23.344;2023-04-15T07:17:47;94829.28;;;20.41;37.29
64668;BME280;51077;42.716;23.344;2023-04-15T07:20:16;94839.13;;;20.62;37.18
64668;BME280;51077;42.716;23.344;2023-04-15T07:22:41;94829.09;;;20.78;36.31
64668;BME280;51077;42.716;23.344;2023-04-15T07:25:07;94831.81;;;20.97;36.03
64668;BME280;51077;42.716;23.344;2023-04-15T07:27:33;94832.22;;;21.13;35.77
64668;BME280;51077;42.716;23.344;2023-04-15T07:29:58;94824.06;;;21.27;35.23
64668;BME280;51077;42.716;23.344;2023-04-15T07:32:23;94827.84;;;21.41;35.05
64668;BME280;51077;42.716;23.344;2023-04-15T07:34:49;94829.66;;;21.58;34.21
64668;BME280;51077;42.716;23.344;2023-04-15T07:37:14;94833.56;;;21.74;34.08
64668;BME280;51077;42.716;23.344;2023-04-15T07:39:40;94836.69;;;21.90;33.33
64668;BME280;51077;42.716;23.344;2023-04-15T07:42:06;94827.63;;;22.01;33.00
64668;BME280;51077;42.716;23.344;2023-04-15T07:44:31;94822.13;;;22.13;32.67
64668;BME280;51077;42.716;23.344;2023-04-15T07:46:56;94825.22;;;22.29;32.28
64668;BME280;51077;42.716;23.344;2023-04-15T07:49:22;94827.72;;;22.46;31.96
64668;BME280;51077;42.716;23.344;2023-04-15T07:51:48;94831.69;;;22.65;31.77
64668;BME280;51077;42.716;23.344;2023-04-15T07:54:14;94846.34;;;22.87;31.85
64668;BME280;51077;42.716;23.344;2023-04-15T07:56:39;94835.81;;;23.08;31.55
64668;BME280;51077;42.716;23.344;2023-04-15T07:59:05;94841.31;;;23.30;31.45
64668;BME280;51077;42.716;23.344;2023-04-15T08:01:31;94851.03;;;23.52;31.37
64668;BME280;51077;42.716;23.344;2023-04-15T08:03:57;94848.72;;;23.72;30.97
64668;BME280;51077;42.716;23.344;2023-04-15T08:06:25;94851.66;;;23.86;30.59
64668;BME280;51077;42.716;23.344;2023-04-15T08:08:51;94844.69;;;23.99;30.34
64668;BME280;51077;42.716;23.344;2023-04-15T08:11:18;94846.31;;;24.16;30.02
64668;BME280;51077;42.716;23.344;2023-04-15T08:13:44;94847.25;;;24.32;29.73
64668;BME280;51077;42.716;23.344;2023-04-15T08:16:17;94844.66;;;24.48;29.70
64668;BME280;51077;42.716;23.344;2023-04-15T08:18:43;94847.75;;;24.66;29.79
64668;BME280;51077;42.716;23.344;2023-04-15T08:21:10;94836.91;;;24.86;29.63
64668;BME280;51077;42.716;23.344;2023-04-15T08:23:35;94836.44;;;25.03;29.31
64668;BME280;51077;42.716;23.344;2023-04-15T08:26:01;94837.66;;;25.25;29.17
64668;BME280;51077;42.716;23.344;2023-04-15T08:28:26;94838.00;;;25.45;28.88
64668;BME280;51077;42.716;23.344;2023-04-15T08:30:52;94842.88;;;25.72;28.86
64668;BME280;51077;42.716;23.344;2023-04-15T08:33:17;94835.31;;;25.89;28.47
64668;BME280;51077;42.716;23.344;2023-04-15T08:35:43;94829.47;;;26.12;28.15
64668;BME280;51077;42.716;23.344;2023-04-15T08:38:08;94834.50;;;26.29;27.22
64668;BME280;51077;42.716;23.344;2023-04-15T08:40:41;94830.19;;;26.42;26.74
64668;BME280;51077;42.716;23.344;2023-04-15T08:43:10;94812.56;;;26.55;26.83
64668;BME280;51077;42.716;23.344;2023-04-15T08:45:39;94823.41;;;26.77;26.72
64668;BME280;51077;42.716;23.344;2023-04-15T08:48:06;94813.09;;;26.97;26.16
64668;BME280;51077;42.716;23.344;2023-04-15T08:50:32;94818.88;;;27.15;26.07
64668;BME280;51077;42.716;23.344;2023-04-15T08:52:58;94812.53;;;27.30;25.80
64668;BME280;51077;42.716;23.344;2023-04-15T08:55:29;94821.59;;;27.45;25.52
64668;BME280;51077;42.716;23.344;2023-04-15T08:57:58;94818.16;;;27.30;25.49
64668;BME280;51077;42.716;23.344;2023-04-15T09:00:24;94823.31;;;27.20;25.45
64668;BME280;51077;42.716;23.344;2023-04-15T09:02:50;94810.59;;;27.19;25.22
64668;BME280;51077;42.716;23.344;2023-04-15T09:34:36;94786.75;;;28.03;23.59
64668;BME280;51077;42.716;23.344;2023-04-15T09:37:02;94790.19;;;27.84;23.27
64668;BME280;51077;42.716;23.344;2023-04-15T09:39:44;94787.53;;;27.88;23.05
64668;BME280;51077;42.716;23.344;2023-04-15T09:42:11;94791.56;;;27.83;23.19
64668;BME280;51077;42.716;23.344;2023-04-15T09:44:36;94793.72;;;27.85;23.30
64668;BME280;51077;42.716;23.344;2023-04-15T09:47:02;94791.06;;;27.89;23.40
64668;BME280;51077;42.716;23.344;2023-04-15T09:49:27;94784.06;;;27.90;23.45
64668;BME280;51077;42.716;23.344;2023-04-15T09:52:00;94788.19;;;27.87;23.32
64668;BME280;51077;42.716;23.344;2023-04-15T09:54:33;94783.44;;;27.91;22.93
64668;BME280;51077;42.716;23.344;2023-04-15T09:57:07;94785.69;;;27.95;22.88
64668;BME280;51077;42.716;23.344;2023-04-15T09:59:32;94790.56;;;27.76;22.94
64668;BME280;51077;42.716;23.344;2023-04-15T10:01:58;94781.47;;;27.62;23.03
64668;BME280;51077;42.716;23.344;2023-04-15T10:04:26;94784.13;;;27.42;23.41
64668;BME280;51077;42.716;23.344;2023-04-15T10:06:52;94784.50;;;27.19;23.31
64668;BME280;51077;42.716;23.344;2023-04-15T10:09:18;94784.59;;;27.05;23.66
64668;BME280;51077;42.716;23.344;2023-04-15T10:11:44;94782.94;;;27.00;23.62
64668;BME280;51077;42.716;23.344;2023-04-15T10:14:12;94773.94;;;27.03;23.63
64668;BME280;51077;42.716;23.344;2023-04-15T10:16:40;94775.81;;;27.13;23.53
64668;BME280;51077;42.716;23.344;2023-04-15T10:19:09;94764.34;;;27.24;23.05
64668;BME280;51077;42.716;23.344;2023-04-15T10:21:36;94757.78;;;27.36;23.19
64668;BME280;51077;42.716;23.344;2023-04-15T10:24:02;94763.22;;;27.47;22.93
64668;BME280;51077;42.716;23.344;2023-04-15T10:26:28;94752.19;;;27.69;22.79
64668;BME280;51077;42.716;23.344;2023-04-15T10:28:54;94756.84;;;27.96;22.43
64668;BME280;51077;42.716;23.344;2023-04-15T10:31:20;94751.78;;;28.28;22.17
64668;BME280;51077;42.716;23.344;2023-04-15T10:33:46;94748.59;;;28.36;21.90
64668;BME280;51077;42.716;23.344;2023-04-15T10:36:13;94742.09;;;28.34;21.96
64668;BME280;51077;42.716;23.344;2023-04-15T10:38:40;94736.22;;;28.27;22.20
64668;BME280;51077;42.716;23.344;2023-04-15T10:41:21;94746.53;;;28.21;22.26
64668;BME280;51077;42.716;23.344;2023-04-15T10:46:12;94743.16;;;28.24;22.07
64668;BME280;51077;42.716;23.344;2023-04-15T10:48:37;94746.63;;;28.23;22.04
64668;BME280;51077;42.716;23.344;2023-04-15T10:51:03;94741.94;;;28.12;22.18
64668;BME280;51077;42.716;23.344;2023-04-15T10:53:29;94734.50;;;28.02;22.07
64668;BME280;51077;42.716;23.344;2023-04-15T10:55:56;94740.09;;;28.00;22.09
64668;BME280;51077;42.716;23.344;2023-04-15T10:58:23;94736.59;;;27.84;22.00
64668;BME280;51077;42.716;23.344;2023-04-15T11:00:53;94739.16;;;27.78;21.86
64668;BME280;51077;42.716;23.344;2023-04-15T11:03:36;94731.13;;;27.88;21.63
64668;BME280;51077;42.716;23.344;2023-04-15T11:06:04;94739.66;;;27.90;21.84
64668;BME280;51077;42.716;23.344;2023-04-15T11:08:56;94739.47;;;27.86;21.87
64668;BME280;51077;42.716;23.344;2023-04-15T11:11:25;94739.00;;;27.74;22.10
64668;BME280;51077;42.716;23.344;2023-04-15T11:14:14;94731.53;;;27.65;21.95
64668;BME280;51077;42.716;23.344;2023-04-15T11:16:43;94737.81;;;27.63;21.93
64668;BME280;51077;42.716;23.344;2023-04-15T11:19:09;94734.16;;;27.76;21.68
64668;BME280;51077;42.716;23.344;2023-04-15T11:21:35;94726.38;;;27.93;21.52
64668;BME280;51077;42.716;23.344;2023-04-15T11:24:00;94728.81;;;28.00;21.41
64668;BME280;51077;42.716;23.344;2023-04-15T11:26:26;94713.56;;;28.08;20.95
64668;BME280;51077;42.716;23.344;2023-04-15T11:28:54;94712.03;;;28.22;20.68
64668;BME280;51077;42.716;23.344;2023-04-15T11:31:19;94720.19;;;28.32;20.65
64668;BME280;51077;42.716;23.344;2023-04-15T11:33:55;94710.69;;;28.41;20.68
64668;BME280;51077;42.716;23.344;2023-04-15T11:36:24;94703.91;;;28.48;20.24
64668;BME280;51077;42.716;23.344;2023-04-15T11:38:51;94701.72;;;28.11;20.96
64668;BME280;51077;42.716;23.344;2023-04-15T11:41:19;94702.44;;;27.94;22.09
64668;BME280;51077;42.716;23.344;2023-04-15T11:43:45;94704.53;;;28.11;21.30
64668;BME280;51077;42.716;23.344;2023-04-15T11:46:11;94710.00;;;28.25;20.78
64668;BME280;51077;42.716;23.344;2023-04-15T11:48:41;94704.47;;;28.45;20.09
64668;BME280;51077;42.716;23.344;2023-04-15T11:51:07;94712.13;;;28.42;19.88
64668;BME280;51077;42.716;23.344;2023-04-15T11:56:05;94707.44;;;28.49;19.35
64668;BME280;51077;42.716;23.344;2023-04-15T11:58:34;94703.75;;;28.44;19.37
64668;BME280;51077;42.716;23.344;2023-04-15T12:01:04;94703.44;;;28.36;19.45
64668;BME280;51077;42.716;23.344;2023-04-15T12:03:42;94706.13;;;28.34;19.49
64668;BME280;51077;42.716;23.344;2023-04-15T12:06:22;94712.38;;;28.30;19.59
64668;BME280;51077;42.716;23.344;2023-04-15T12:14:02;94707.25;;;28.63;19.08
64668;BME280;51077;42.716;23.344;2023-04-15T12:16:28;94706.13;;;28.70;19.05
64668;BME280;51077;42.716;23.344;2023-04-15T12:18:56;94706.56;;;28.82;19.28
64668;BME280;51077;42.716;23.344;2023-04-15T12:21:25;94700.91;;;28.82;19.08
64668;BME280;51077;42.716;23.344;2023-04-15T12:23:52;94712.19;;;28.82;18.84
64668;BME280;51077;42.716;23.344;2023-04-15T12:26:25;94710.53;;;28.75;18.83
64668;BME280;51077;42.716;23.344;2023-04-15T12:29:10;94712.91;;;28.63;18.80
64668;BME280;51077;42.716;23.344;2023-04-15T12:31:50;94708.78;;;28.66;18.84
64668;BME280;51077;42.716;23.344;2023-04-15T12:37:05;94709.63;;;28.50;17.89
64668;BME280;51077;42.716;23.344;2023-04-15T12:39:34;94703.44;;;28.36;18.08
64668;BME280;51077;42.716;23.344;2023-04-15T12:42:00;94704.28;;;28.23;17.98
64668;BME280;51077;42.716;23.344;2023-04-15T12:44:27;94717.19;;;28.10;17.44
64668;BME280;51077;42.716;23.344;2023-04-15T12:46:53;94702.75;;;27.84;17.61
64668;BME280;51077;42.716;23.344;2023-04-15T12:49:22;94705.03;;;27.72;17.22
64668;BME280;51077;42.716;23.344;2023-04-15T12:51:49;94704.78;;;27.66;17.21
64668;BME280;51077;42.716;23.344;2023-04-15T12:54:15;94701.03;;;27.43;17.20
64668;BME280;51077;42.716;23.344;2023-04-15T12:56:44;94710.81;;;27.09;17.39
64668;BME280;51077;42.716;23.344;2023-04-15T12:59:11;94703.63;;;26.90;17.52
64668;BME280;51077;42.716;23.344;2023-04-15T13:01:37;94704.53;;;26.78;17.77
64668;BME280;51077;42.716;23.344;2023-04-15T13:04:02;94701.63;;;26.76;17.44
64668;BME280;51077;42.716;23.344;2023-04-15T13:06:28;94705.09;;;26.75;17.44
64668;BME280;51077;42.716;23.344;2023-04-15T13:08:58;94701.00;;;26.62;17.47
64668;BME280;51077;42.716;23.344;2023-04-15T13:11:24;94708.16;;;26.49;18.09
64668;BME280;51077;42.716;23.344;2023-04-15T13:13:50;94709.72;;;26.23;20.02
64668;BME280;51077;42.716;23.344;2023-04-15T13:16:17;94708.47;;;25.96;21.38
64668;BME280;51077;42.716;23.344;2023-04-15T13:18:43;94700.28;;;25.87;23.32
64668;BME280;51077;42.716;23.344;2023-04-15T13:21:11;94699.97;;;25.80;25.43
64668;BME280;51077;42.716;23.344;2023-04-15T13:23:36;94703.81;;;25.73;23.76
64668;BME280;51077;42.716;23.344;2023-04-15T13:26:01;94703.41;;;25.65;21.84
64668;BME280;51077;42.716;23.344;2023-04-15T13:28:27;94701.38;;;25.52;20.32